This is the latest recevied weather packets stored in our database for station/object 9W2TBJ-4. If no packets are shown the sender has not sent any weather packets the latest 1 day(s).
| Time | Temp. | Humidity | Pressure | Rain* | Wind** | Luminosity | Snow |
|---|---|---|---|---|---|---|---|
| 1777917550 | 31.11° C | 64% | 1011.4 hPa | - | - | - | - |
| 1777916350 | 30.56° C | 65% | 1011.6 hPa | - | - | - | - |
| 1777915150 | 30° C | 68% | 1011.8 hPa | - | - | - | - |
| 1777913950 | 30.56° C | 65% | 1012.1 hPa | - | - | - | - |
| 1777912750 | 31.11° C | 63% | 1012.2 hPa | - | - | - | - |
| 1777911550 | 31.11° C | 62% | 1012.3 hPa | - | - | - | - |
| 1777910350 | 31.11° C | 63% | 1012.3 hPa | - | - | - | - |
| 1777909150 | 30.56° C | 64% | 1012.4 hPa | - | - | - | - |
| 1777907950 | 31.11° C | 65% | 1012.1 hPa | - | - | - | - |
| 1777906750 | 31.11° C | 64% | 1011.8 hPa | - | - | - | - |
| 1777905549 | 31.67° C | 63% | 1011.7 hPa | - | - | - | - |
| 1777904349 | 31.11° C | 64% | 1011.7 hPa | - | - | - | - |
| 1777903149 | 31.11° C | 64% | 1011.6 hPa | - | - | - | - |
| 1777901949 | 31.11° C | 63% | 1011.1 hPa | - | - | - | - |
| 1777900749 | 31.67° C | 63% | 1010.8 hPa | - | - | - | - |
| 1777899549 | 31.67° C | 62% | 1010.6 hPa | - | - | - | - |
| 1777898349 | 31.11° C | 63% | 1010.6 hPa | - | - | - | - |
| 1777897150 | 31.67° C | 62% | 1010.2 hPa | - | - | - | - |
| 1777895949 | 31.67° C | 60% | 1010.1 hPa | - | - | - | - |
| 1777894749 | 32.22° C | 60% | 1010 hPa | - | - | - | - |
| 1777893549 | 31.67° C | 61% | 1009.7 hPa | - | - | - | - |
| 1777892349 | 31.67° C | 61% | 1009.8 hPa | - | - | - | - |
| 1777891149 | 32.22° C | 58% | 1009.4 hPa | - | - | - | - |
| 1777889949 | 32.22° C | 59% | 1009.2 hPa | - | - | - | - |
| 1777888750 | 32.22° C | 59% | 1009.2 hPa | - | - | - | - |
* Rain since midnight (hover to see other rain measurements)
** Current wind speed in m/s (hover to see current wind gust speed)